sensor_id;sensor_type;location;lat;lon;timestamp;P1;durP1;ratioP1;P2;durP2;ratioP2
41881;SDS011;27562;47.524;12.404;2023-12-04T00:01:14;8.40;;;3.58;;
41881;SDS011;27562;47.524;12.404;2023-12-04T00:03:40;10.30;;;3.78;;
41881;SDS011;27562;47.524;12.404;2023-12-04T00:06:06;8.38;;;3.65;;
41881;SDS011;27562;47.524;12.404;2023-12-04T00:08:32;12.23;;;3.97;;
41881;SDS011;27562;47.524;12.404;2023-12-04T00:10:58;8.68;;;4.22;;
41881;SDS011;27562;47.524;12.404;2023-12-04T00:13:24;7.85;;;3.40;;
41881;SDS011;27562;47.524;12.404;2023-12-04T00:15:49;9.85;;;4.30;;
41881;SDS011;27562;47.524;12.404;2023-12-04T00:18:15;7.13;;;3.60;;
41881;SDS011;27562;47.524;12.404;2023-12-04T00:20:40;17.98;;;6.85;;
41881;SDS011;27562;47.524;12.404;2023-12-04T00:23:06;21.02;;;7.85;;
41881;SDS011;27562;47.524;12.404;2023-12-04T00:25:32;9.70;;;4.43;;
41881;SDS011;27562;47.524;12.404;2023-12-04T00:27:57;7.20;;;3.25;;
41881;SDS011;27562;47.524;12.404;2023-12-04T00:30:23;6.18;;;3.17;;
41881;SDS011;27562;47.524;12.404;2023-12-04T00:32:49;9.68;;;3.15;;
41881;SDS011;27562;47.524;12.404;2023-12-04T00:35:14;9.20;;;3.88;;
41881;SDS011;27562;47.524;12.404;2023-12-04T00:37:40;11.95;;;4.10;;
41881;SDS011;27562;47.524;12.404;2023-12-04T00:40:06;10.68;;;4.00;;
41881;SDS011;27562;47.524;12.404;2023-12-04T00:42:32;8.48;;;3.65;;
41881;SDS011;27562;47.524;12.404;2023-12-04T00:44:58;9.70;;;4.03;;
41881;SDS011;27562;47.524;12.404;2023-12-04T00:47:24;8.52;;;3.28;;
41881;SDS011;27562;47.524;12.404;2023-12-04T00:49:49;8.63;;;3.38;;
41881;SDS011;27562;47.524;12.404;2023-12-04T00:52:15;7.10;;;3.20;;
41881;SDS011;27562;47.524;12.404;2023-12-04T00:54:41;6.85;;;3.42;;
41881;SDS011;27562;47.524;12.404;2023-12-04T00:57:06;6.45;;;2.97;;
41881;SDS011;27562;47.524;12.404;2023-12-04T00:59:33;7.68;;;3.28;;
41881;SDS011;27562;47.524;12.404;2023-12-04T01:01:58;7.57;;;2.78;;
41881;SDS011;27562;47.524;12.404;2023-12-04T01:04:24;7.35;;;3.00;;
41881;SDS011;27562;47.524;12.404;2023-12-04T01:06:49;7.63;;;3.05;;
41881;SDS011;27562;47.524;12.404;2023-12-04T01:09:16;6.43;;;2.60;;
41881;SDS011;27562;47.524;12.404;2023-12-04T01:11:42;6.43;;;2.70;;
41881;SDS011;27562;47.524;12.404;2023-12-04T01:14:07;5.40;;;2.65;;
41881;SDS011;27562;47.524;12.404;2023-12-04T01:16:33;8.27;;;3.33;;
41881;SDS011;27562;47.524;12.404;2023-12-04T01:18:59;7.90;;;3.47;;
41881;SDS011;27562;47.524;12.404;2023-12-04T01:21:24;8.52;;;3.13;;
41881;SDS011;27562;47.524;12.404;2023-12-04T01:23:50;6.35;;;2.80;;
41881;SDS011;27562;47.524;12.404;2023-12-04T01:26:16;7.60;;;2.85;;
41881;SDS011;27562;47.524;12.404;2023-12-04T01:28:41;5.88;;;2.78;;
41881;SDS011;27562;47.524;12.404;2023-12-04T01:31:07;10.27;;;3.88;;
41881;SDS011;27562;47.524;12.404;2023-12-04T01:33:33;8.75;;;3.28;;
41881;SDS011;27562;47.524;12.404;2023-12-04T01:35:58;7.82;;;3.25;;
41881;SDS011;27562;47.524;12.404;2023-12-04T01:38:24;8.60;;;3.75;;
41881;SDS011;27562;47.524;12.404;2023-12-04T01:40:50;11.15;;;3.60;;
41881;SDS011;27562;47.524;12.404;2023-12-04T01:43:16;7.13;;;2.97;;
41881;SDS011;27562;47.524;12.404;2023-12-04T01:45:41;8.55;;;3.33;;
41881;SDS011;27562;47.524;12.404;2023-12-04T01:48:07;8.40;;;3.28;;
41881;SDS011;27562;47.524;12.404;2023-12-04T01:50:35;8.98;;;3.22;;
41881;SDS011;27562;47.524;12.404;2023-12-04T01:53:01;6.72;;;2.75;;
41881;SDS011;27562;47.524;12.404;2023-12-04T01:55:28;7.00;;;3.15;;
41881;SDS011;27562;47.524;12.404;2023-12-04T01:57:54;5.93;;;2.90;;
41881;SDS011;27562;47.524;12.404;2023-12-04T02:00:21;4.85;;;2.45;;
41881;SDS011;27562;47.524;12.404;2023-12-04T02:02:47;6.80;;;3.10;;
41881;SDS011;27562;47.524;12.404;2023-12-04T02:05:13;6.05;;;2.65;;
41881;SDS011;27562;47.524;12.404;2023-12-04T02:07:42;6.65;;;2.63;;
41881;SDS011;27562;47.524;12.404;2023-12-04T02:10:08;5.72;;;2.72;;
41881;SDS011;27562;47.524;12.404;2023-12-04T02:12:34;5.93;;;2.88;;
41881;SDS011;27562;47.524;12.404;2023-12-04T02:15:00;8.82;;;3.15;;
41881;SDS011;27562;47.524;12.404;2023-12-04T02:17:26;5.85;;;2.55;;
41881;SDS011;27562;47.524;12.404;2023-12-04T02:19:53;7.90;;;2.90;;
41881;SDS011;27562;47.524;12.404;2023-12-04T02:22:19;7.47;;;3.05;;
41881;SDS011;27562;47.524;12.404;2023-12-04T02:24:45;7.85;;;3.20;;
41881;SDS011;27562;47.524;12.404;2023-12-04T02:27:16;6.63;;;2.80;;
41881;SDS011;27562;47.524;12.404;2023-12-04T02:29:52;6.90;;;2.65;;
41881;SDS011;27562;47.524;12.404;2023-12-04T02:32:26;4.72;;;2.13;;
41881;SDS011;27562;47.524;12.404;2023-12-04T02:34:54;7.25;;;2.53;;
41881;SDS011;27562;47.524;12.404;2023-12-04T02:37:21;7.13;;;2.70;;
41881;SDS011;27562;47.524;12.404;2023-12-04T02:39:48;7.50;;;2.60;;
41881;SDS011;27562;47.524;12.404;2023-12-04T02:42:17;7.50;;;2.53;;
41881;SDS011;27562;47.524;12.404;2023-12-04T02:44:44;4.25;;;2.30;;
41881;SDS011;27562;47.524;12.404;2023-12-04T02:47:10;4.13;;;2.42;;
41881;SDS011;27562;47.524;12.404;2023-12-04T02:49:36;6.57;;;2.47;;
41881;SDS011;27562;47.524;12.404;2023-12-04T02:52:02;4.88;;;2.42;;
41881;SDS011;27562;47.524;12.404;2023-12-04T02:54:28;8.90;;;3.05;;
41881;SDS011;27562;47.524;12.404;2023-12-04T02:56:54;8.48;;;3.42;;
41881;SDS011;27562;47.524;12.404;2023-12-04T02:59:19;12.95;;;3.97;;
41881;SDS011;27562;47.524;12.404;2023-12-04T03:01:45;15.32;;;5.15;;
41881;SDS011;27562;47.524;12.404;2023-12-04T03:04:11;15.07;;;5.22;;
41881;SDS011;27562;47.524;12.404;2023-12-04T03:06:37;18.30;;;6.53;;
41881;SDS011;27562;47.524;12.404;2023-12-04T03:09:03;14.98;;;5.00;;
41881;SDS011;27562;47.524;12.404;2023-12-04T03:11:30;9.95;;;3.25;;
41881;SDS011;27562;47.524;12.404;2023-12-04T03:13:55;7.75;;;2.38;;
41881;SDS011;27562;47.524;12.404;2023-12-04T03:16:24;6.63;;;2.40;;
41881;SDS011;27562;47.524;12.404;2023-12-04T03:18:50;5.15;;;2.20;;
41881;SDS011;27562;47.524;12.404;2023-12-04T03:21:16;5.75;;;2.60;;
41881;SDS011;27562;47.524;12.404;2023-12-04T03:23:41;6.45;;;2.60;;
41881;SDS011;27562;47.524;12.404;2023-12-04T03:26:07;5.82;;;2.25;;
41881;SDS011;27562;47.524;12.404;2023-12-04T03:28:33;5.80;;;2.10;;
41881;SDS011;27562;47.524;12.404;2023-12-04T03:30:59;5.75;;;2.50;;
41881;SDS011;27562;47.524;12.404;2023-12-04T03:33:25;3.72;;;1.88;;
41881;SDS011;27562;47.524;12.404;2023-12-04T03:35:50;4.55;;;2.00;;
41881;SDS011;27562;47.524;12.404;2023-12-04T03:38:16;5.88;;;2.53;;
41881;SDS011;27562;47.524;12.404;2023-12-04T03:40:42;5.28;;;1.95;;
41881;SDS011;27562;47.524;12.404;2023-12-04T03:43:07;4.78;;;2.20;;
41881;SDS011;27562;47.524;12.404;2023-12-04T03:45:33;6.68;;;2.72;;
41881;SDS011;27562;47.524;12.404;2023-12-04T03:47:58;7.22;;;2.90;;
41881;SDS011;27562;47.524;12.404;2023-12-04T03:50:24;8.20;;;3.63;;
41881;SDS011;27562;47.524;12.404;2023-12-04T03:52:50;7.05;;;3.25;;
41881;SDS011;27562;47.524;12.404;2023-12-04T03:55:15;5.55;;;2.17;;
41881;SDS011;27562;47.524;12.404;2023-12-04T03:57:41;6.90;;;1.92;;
41881;SDS011;27562;47.524;12.404;2023-12-04T04:00:09;7.60;;;2.70;;
41881;SDS011;27562;47.524;12.404;2023-12-04T04:02:39;4.50;;;2.17;;
41881;SDS011;27562;47.524;12.404;2023-12-04T04:05:06;6.03;;;2.35;;
41881;SDS011;27562;47.524;12.404;2023-12-04T04:07:31;6.28;;;2.20;;
41881;SDS011;27562;47.524;12.404;2023-12-04T04:09:57;6.13;;;2.05;;
41881;SDS011;27562;47.524;12.404;2023-12-04T04:12:23;7.22;;;2.33;;
41881;SDS011;27562;47.524;12.404;2023-12-04T04:14:48;5.68;;;2.90;;
41881;SDS011;27562;47.524;12.404;2023-12-04T04:17:14;4.93;;;2.22;;
41881;SDS011;27562;47.524;12.404;2023-12-04T04:19:40;4.45;;;2.05;;
41881;SDS011;27562;47.524;12.404;2023-12-04T04:22:06;4.97;;;2.40;;
41881;SDS011;27562;47.524;12.404;2023-12-04T04:24:31;6.38;;;2.22;;
41881;SDS011;27562;47.524;12.404;2023-12-04T04:26:57;3.78;;;1.95;;
41881;SDS011;27562;47.524;12.404;2023-12-04T04:29:23;8.00;;;2.38;;
41881;SDS011;27562;47.524;12.404;2023-12-04T04:31:48;5.68;;;2.28;;
41881;SDS011;27562;47.524;12.404;2023-12-04T04:34:14;4.45;;;2.35;;
41881;SDS011;27562;47.524;12.404;2023-12-04T04:36:39;5.25;;;2.22;;
41881;SDS011;27562;47.524;12.404;2023-12-04T04:39:05;4.60;;;2.03;;
41881;SDS011;27562;47.524;12.404;2023-12-04T04:41:31;4.90;;;2.08;;
41881;SDS011;27562;47.524;12.404;2023-12-04T04:43:57;4.03;;;1.80;;
41881;SDS011;27562;47.524;12.404;2023-12-04T04:46:22;4.80;;;2.13;;
41881;SDS011;27562;47.524;12.404;2023-12-04T04:48:50;5.32;;;2.05;;
41881;SDS011;27562;47.524;12.404;2023-12-04T04:51:16;4.10;;;2.00;;
41881;SDS011;27562;47.524;12.404;2023-12-04T04:53:41;3.55;;;1.83;;
41881;SDS011;27562;47.524;12.404;2023-12-04T04:56:07;6.15;;;2.17;;
41881;SDS011;27562;47.524;12.404;2023-12-04T04:58:34;5.05;;;2.08;;
41881;SDS011;27562;47.524;12.404;2023-12-04T05:00:59;5.18;;;2.45;;
41881;SDS011;27562;47.524;12.404;2023-12-04T05:03:25;3.35;;;2.08;;
41881;SDS011;27562;47.524;12.404;2023-12-04T05:05:50;5.88;;;1.92;;
41881;SDS011;27562;47.524;12.404;2023-12-04T05:08:17;4.25;;;1.92;;
41881;SDS011;27562;47.524;12.404;2023-12-04T05:10:42;6.57;;;2.42;;
41881;SDS011;27562;47.524;12.404;2023-12-04T05:13:08;5.47;;;2.78;;
41881;SDS011;27562;47.524;12.404;2023-12-04T05:15:33;6.00;;;2.53;;
41881;SDS011;27562;47.524;12.404;2023-12-04T05:17:59;4.25;;;2.10;;
41881;SDS011;27562;47.524;12.404;2023-12-04T05:20:25;4.97;;;1.90;;
41881;SDS011;27562;47.524;12.404;2023-12-04T05:22:51;3.55;;;1.42;;
41881;SDS011;27562;47.524;12.404;2023-12-04T05:25:17;9.38;;;2.40;;
41881;SDS011;27562;47.524;12.404;2023-12-04T05:27:43;3.40;;;1.67;;
41881;SDS011;27562;47.524;12.404;2023-12-04T05:30:08;6.18;;;1.80;;
41881;SDS011;27562;47.524;12.404;2023-12-04T05:32:34;4.50;;;2.15;;
41881;SDS011;27562;47.524;12.404;2023-12-04T05:35:00;5.53;;;1.90;;
41881;SDS011;27562;47.524;12.404;2023-12-04T05:37:26;4.68;;;1.80;;
41881;SDS011;27562;47.524;12.404;2023-12-04T05:39:51;4.60;;;2.22;;
41881;SDS011;27562;47.524;12.404;2023-12-04T05:42:17;5.82;;;2.38;;
41881;SDS011;27562;47.524;12.404;2023-12-04T05:44:43;4.93;;;2.65;;
41881;SDS011;27562;47.524;12.404;2023-12-04T05:47:09;5.75;;;2.53;;
41881;SDS011;27562;47.524;12.404;2023-12-04T05:49:34;6.40;;;2.03;;
41881;SDS011;27562;47.524;12.404;2023-12-04T05:52:00;6.82;;;2.65;;
41881;SDS011;27562;47.524;12.404;2023-12-04T05:54:25;6.38;;;2.58;;
41881;SDS011;27562;47.524;12.404;2023-12-04T05:56:51;7.53;;;2.35;;
41881;SDS011;27562;47.524;12.404;2023-12-04T05:59:17;5.38;;;1.95;;
41881;SDS011;27562;47.524;12.404;2023-12-04T06:01:43;3.72;;;2.08;;
41881;SDS011;27562;47.524;12.404;2023-12-04T06:04:08;62.15;;;17.52;;
41881;SDS011;27562;47.524;12.404;2023-12-04T06:06:34;18.65;;;6.90;;
41881;SDS011;27562;47.524;12.404;2023-12-04T06:09:00;8.27;;;3.10;;
41881;SDS011;27562;47.524;12.404;2023-12-04T06:11:25;14.48;;;5.53;;
41881;SDS011;27562;47.524;12.404;2023-12-04T06:13:51;8.60;;;3.05;;
41881;SDS011;27562;47.524;12.404;2023-12-04T06:16:17;9.48;;;4.38;;
41881;SDS011;27562;47.524;12.404;2023-12-04T06:18:42;10.35;;;4.05;;
41881;SDS011;27562;47.524;12.404;2023-12-04T06:21:08;10.60;;;4.38;;
41881;SDS011;27562;47.524;12.404;2023-12-04T06:23:34;18.10;;;6.53;;
41881;SDS011;27562;47.524;12.404;2023-12-04T06:26:00;12.90;;;5.63;;
41881;SDS011;27562;47.524;12.404;2023-12-04T06:28:26;8.15;;;3.65;;
41881;SDS011;27562;47.524;12.404;2023-12-04T06:30:52;8.95;;;2.90;;
41881;SDS011;27562;47.524;12.404;2023-12-04T06:33:18;9.68;;;3.00;;
41881;SDS011;27562;47.524;12.404;2023-12-04T06:35:45;8.00;;;2.90;;
41881;SDS011;27562;47.524;12.404;2023-12-04T06:38:11;10.95;;;3.33;;
41881;SDS011;27562;47.524;12.404;2023-12-04T06:40:41;6.75;;;3.20;;
41881;SDS011;27562;47.524;12.404;2023-12-04T06:43:07;6.10;;;3.13;;
41881;SDS011;27562;47.524;12.404;2023-12-04T06:45:33;9.60;;;3.47;;
41881;SDS011;27562;47.524;12.404;2023-12-04T06:47:59;9.10;;;3.95;;
41881;SDS011;27562;47.524;12.404;2023-12-04T06:50:25;9.05;;;3.45;;
41881;SDS011;27562;47.524;12.404;2023-12-04T06:52:51;7.88;;;3.38;;
41881;SDS011;27562;47.524;12.404;2023-12-04T06:55:17;7.25;;;3.53;;
41881;SDS011;27562;47.524;12.404;2023-12-04T06:57:43;17.10;;;6.90;;
41881;SDS011;27562;47.524;12.404;2023-12-04T07:00:08;31.80;;;12.55;;
41881;SDS011;27562;47.524;12.404;2023-12-04T07:02:39;27.05;;;13.13;;
41881;SDS011;27562;47.524;12.404;2023-12-04T07:05:05;29.98;;;13.85;;
41881;SDS011;27562;47.524;12.404;2023-12-04T07:07:31;22.52;;;9.80;;
41881;SDS011;27562;47.524;12.404;2023-12-04T07:09:57;16.00;;;7.50;;
41881;SDS011;27562;47.524;12.404;2023-12-04T07:12:22;12.63;;;4.55;;
41881;SDS011;27562;47.524;12.404;2023-12-04T07:14:48;8.55;;;4.20;;
41881;SDS011;27562;47.524;12.404;2023-12-04T07:17:14;7.07;;;3.75;;
41881;SDS011;27562;47.524;12.404;2023-12-04T07:19:43;10.23;;;5.10;;
41881;SDS011;27562;47.524;12.404;2023-12-04T07:22:08;14.02;;;4.10;;
41881;SDS011;27562;47.524;12.404;2023-12-04T07:24:34;8.05;;;3.60;;
41881;SDS011;27562;47.524;12.404;2023-12-04T07:26:59;8.23;;;3.70;;
41881;SDS011;27562;47.524;12.404;2023-12-04T07:29:25;9.55;;;3.97;;
41881;SDS011;27562;47.524;12.404;2023-12-04T07:31:51;9.65;;;4.28;;
41881;SDS011;27562;47.524;12.404;2023-12-04T07:34:16;9.75;;;4.80;;
41881;SDS011;27562;47.524;12.404;2023-12-04T07:36:42;25.20;;;10.00;;
41881;SDS011;27562;47.524;12.404;2023-12-04T07:39:09;39.53;;;14.85;;
41881;SDS011;27562;47.524;12.404;2023-12-04T07:41:35;33.15;;;13.63;;
41881;SDS011;27562;47.524;12.404;2023-12-04T07:44:01;30.75;;;12.32;;
41881;SDS011;27562;47.524;12.404;2023-12-04T07:46:28;26.45;;;11.60;;
41881;SDS011;27562;47.524;12.404;2023-12-04T07:48:54;10.00;;;5.25;;
41881;SDS011;27562;47.524;12.404;2023-12-04T07:51:20;8.82;;;3.55;;
41881;SDS011;27562;47.524;12.404;2023-12-04T07:53:45;10.90;;;3.97;;
41881;SDS011;27562;47.524;12.404;2023-12-04T07:56:12;9.23;;;4.20;;
41881;SDS011;27562;47.524;12.404;2023-12-04T07:58:38;9.50;;;4.50;;
41881;SDS011;27562;47.524;12.404;2023-12-04T08:01:03;10.52;;;4.68;;
41881;SDS011;27562;47.524;12.404;2023-12-04T08:03:30;10.27;;;4.47;;
41881;SDS011;27562;47.524;12.404;2023-12-04T08:05:56;10.95;;;4.28;;
41881;SDS011;27562;47.524;12.404;2023-12-04T08:08:23;8.77;;;3.97;;
41881;SDS011;27562;47.524;12.404;2023-12-04T08:10:49;11.63;;;4.85;;
41881;SDS011;27562;47.524;12.404;2023-12-04T08:13:15;10.02;;;4.35;;
41881;SDS011;27562;47.524;12.404;2023-12-04T08:15:41;9.82;;;4.60;;
41881;SDS011;27562;47.524;12.404;2023-12-04T08:18:07;9.90;;;4.45;;
41881;SDS011;27562;47.524;12.404;2023-12-04T08:20:33;10.93;;;5.00;;
41881;SDS011;27562;47.524;12.404;2023-12-04T08:22:59;11.65;;;5.10;;
41881;SDS011;27562;47.524;12.404;2023-12-04T08:25:24;9.68;;;5.47;;
41881;SDS011;27562;47.524;12.404;2023-12-04T08:27:50;9.98;;;5.70;;
41881;SDS011;27562;47.524;12.404;2023-12-04T08:30:16;10.23;;;4.60;;
41881;SDS011;27562;47.524;12.404;2023-12-04T08:32:41;11.00;;;4.28;;
41881;SDS011;27562;47.524;12.404;2023-12-04T08:35:08;12.52;;;4.40;;
41881;SDS011;27562;47.524;12.404;2023-12-04T08:37:33;8.52;;;4.28;;
41881;SDS011;27562;47.524;12.404;2023-12-04T08:39:59;8.93;;;4.43;;
41881;SDS011;27562;47.524;12.404;2023-12-04T08:42:25;7.55;;;4.30;;
41881;SDS011;27562;47.524;12.404;2023-12-04T08:44:51;9.82;;;4.63;;
41881;SDS011;27562;47.524;12.404;2023-12-04T08:47:16;11.25;;;4.72;;
41881;SDS011;27562;47.524;12.404;2023-12-04T08:49:43;9.68;;;4.43;;
41881;SDS011;27562;47.524;12.404;2023-12-04T08:52:08;10.43;;;5.05;;
41881;SDS011;27562;47.524;12.404;2023-12-04T08:54:34;10.45;;;4.50;;
41881;SDS011;27562;47.524;12.404;2023-12-04T08:57:03;12.10;;;5.30;;
41881;SDS011;27562;47.524;12.404;2023-12-04T08:59:29;17.23;;;7.28;;
41881;SDS011;27562;47.524;12.404;2023-12-04T09:01:55;16.02;;;6.05;;
41881;SDS011;27562;47.524;12.404;2023-12-04T09:04:20;15.98;;;7.05;;
41881;SDS011;27562;47.524;12.404;2023-12-04T09:06:46;15.40;;;8.23;;
41881;SDS011;27562;47.524;12.404;2023-12-04T09:09:12;14.82;;;7.88;;
41881;SDS011;27562;47.524;12.404;2023-12-04T09:11:43;13.52;;;7.47;;
41881;SDS011;27562;47.524;12.404;2023-12-04T09:14:09;12.45;;;6.07;;
41881;SDS011;27562;47.524;12.404;2023-12-04T09:16:35;11.70;;;6.05;;
41881;SDS011;27562;47.524;12.404;2023-12-04T09:19:01;12.60;;;5.20;;
41881;SDS011;27562;47.524;12.404;2023-12-04T09:21:26;11.38;;;5.38;;
41881;SDS011;27562;47.524;12.404;2023-12-04T09:23:52;11.02;;;5.47;;
41881;SDS011;27562;47.524;12.404;2023-12-04T09:26:18;11.18;;;4.63;;
41881;SDS011;27562;47.524;12.404;2023-12-04T09:28:44;8.65;;;4.32;;
41881;SDS011;27562;47.524;12.404;2023-12-04T09:31:09;7.07;;;4.05;;
41881;SDS011;27562;47.524;12.404;2023-12-04T09:33:35;13.43;;;5.63;;
41881;SDS011;27562;47.524;12.404;2023-12-04T09:36:01;10.27;;;4.70;;
41881;SDS011;27562;47.524;12.404;2023-12-04T09:38:27;7.50;;;4.30;;
41881;SDS011;27562;47.524;12.404;2023-12-04T09:40:53;12.20;;;5.05;;
41881;SDS011;27562;47.524;12.404;2023-12-04T09:43:23;18.63;;;5.93;;
41881;SDS011;27562;47.524;12.404;2023-12-04T09:45:50;12.85;;;5.55;;
41881;SDS011;27562;47.524;12.404;2023-12-04T09:48:17;29.27;;;7.75;;
41881;SDS011;27562;47.524;12.404;2023-12-04T09:50:42;33.40;;;9.23;;
41881;SDS011;27562;47.524;12.404;2023-12-04T09:53:10;18.42;;;6.75;;
41881;SDS011;27562;47.524;12.404;2023-12-04T09:55:39;18.13;;;7.55;;
41881;SDS011;27562;47.524;12.404;2023-12-04T09:58:05;15.80;;;6.40;;
41881;SDS011;27562;47.524;12.404;2023-12-04T10:00:31;18.05;;;6.20;;
41881;SDS011;27562;47.524;12.404;2023-12-04T10:02:57;12.50;;;5.82;;
41881;SDS011;27562;47.524;12.404;2023-12-04T10:05:24;11.38;;;5.40;;
41881;SDS011;27562;47.524;12.404;2023-12-04T10:07:50;11.50;;;5.25;;
41881;SDS011;27562;47.524;12.404;2023-12-04T10:10:16;8.45;;;4.55;;
41881;SDS011;27562;47.524;12.404;2023-12-04T10:12:43;7.68;;;3.58;;
41881;SDS011;27562;47.524;12.404;2023-12-04T10:15:09;8.15;;;4.22;;
41881;SDS011;27562;47.524;12.404;2023-12-04T10:17:37;8.27;;;3.97;;
41881;SDS011;27562;47.524;12.404;2023-12-04T10:20:04;7.72;;;3.65;;
41881;SDS011;27562;47.524;12.404;2023-12-04T10:22:56;8.40;;;3.35;;
41881;SDS011;27562;47.524;12.404;2023-12-04T10:25:24;8.80;;;4.30;;
41881;SDS011;27562;47.524;12.404;2023-12-04T10:27:53;7.97;;;4.03;;
41881;SDS011;27562;47.524;12.404;2023-12-04T10:30:27;8.88;;;4.43;;
41881;SDS011;27562;47.524;12.404;2023-12-04T10:32:54;6.47;;;3.40;;
41881;SDS011;27562;47.524;12.404;2023-12-04T10:35:25;10.65;;;3.40;;
41881;SDS011;27562;47.524;12.404;2023-12-04T10:37:56;7.47;;;3.90;;
41881;SDS011;27562;47.524;12.404;2023-12-04T10:40:23;7.45;;;3.75;;
41881;SDS011;27562;47.524;12.404;2023-12-04T10:42:49;6.85;;;3.75;;
41881;SDS011;27562;47.524;12.404;2023-12-04T10:45:15;9.10;;;4.00;;
41881;SDS011;27562;47.524;12.404;2023-12-04T10:47:42;10.27;;;4.68;;
41881;SDS011;27562;47.524;12.404;2023-12-04T10:50:10;7.88;;;3.67;;
41881;SDS011;27562;47.524;12.404;2023-12-04T10:52:37;8.10;;;4.00;;
41881;SDS011;27562;47.524;12.404;2023-12-04T10:55:05;7.28;;;3.90;;
41881;SDS011;27562;47.524;12.404;2023-12-04T10:57:33;8.30;;;4.35;;
41881;SDS011;27562;47.524;12.404;2023-12-04T11:00:04;7.15;;;3.85;;
41881;SDS011;27562;47.524;12.404;2023-12-04T11:02:33;12.60;;;5.70;;
41881;SDS011;27562;47.524;12.404;2023-12-04T11:05:07;17.05;;;7.15;;
41881;SDS011;27562;47.524;12.404;2023-12-04T11:07:39;16.98;;;7.20;;
41881;SDS011;27562;47.524;12.404;2023-12-04T11:12:36;16.90;;;6.93;;
41881;SDS011;27562;47.524;12.404;2023-12-04T11:15:09;12.95;;;6.75;;
41881;SDS011;27562;47.524;12.404;2023-12-04T11:17:39;11.32;;;5.20;;
41881;SDS011;27562;47.524;12.404;2023-12-04T11:20:22;11.88;;;5.50;;
41881;SDS011;27562;47.524;12.404;2023-12-04T11:22:52;11.70;;;4.95;;
41881;SDS011;27562;47.524;12.404;2023-12-04T11:25:20;6.88;;;4.13;;
41881;SDS011;27562;47.524;12.404;2023-12-04T11:27:49;8.07;;;4.30;;
41881;SDS011;27562;47.524;12.404;2023-12-04T11:30:17;10.55;;;4.85;;
41881;SDS011;27562;47.524;12.404;2023-12-04T11:32:44;8.30;;;4.78;;
41881;SDS011;27562;47.524;12.404;2023-12-04T11:35:17;10.60;;;4.43;;
41881;SDS011;27562;47.524;12.404;2023-12-04T11:37:46;6.97;;;4.20;;
41881;SDS011;27562;47.524;12.404;2023-12-04T11:40:14;33.47;;;13.05;;
41881;SDS011;27562;47.524;12.404;2023-12-04T11:42:41;23.27;;;9.18;;
41881;SDS011;27562;47.524;12.404;2023-12-04T11:45:07;32.50;;;12.20;;
41881;SDS011;27562;47.524;12.404;2023-12-04T11:47:53;40.92;;;15.43;;
41881;SDS011;27562;47.524;12.404;2023-12-04T11:50:26;24.98;;;11.07;;
41881;SDS011;27562;47.524;12.404;2023-12-04T11:52:52;10.93;;;5.00;;
41881;SDS011;27562;47.524;12.404;2023-12-04T11:55:20;11.70;;;6.15;;
41881;SDS011;27562;47.524;12.404;2023-12-04T11:57:47;16.05;;;7.60;;
41881;SDS011;27562;47.524;12.404;2023-12-04T12:00:19;14.50;;;7.15;;
41881;SDS011;27562;47.524;12.404;2023-12-04T12:02:47;12.30;;;5.93;;
41881;SDS011;27562;47.524;12.404;2023-12-04T12:05:22;10.07;;;5.78;;
41881;SDS011;27562;47.524;12.404;2023-12-04T12:07:49;12.27;;;6.00;;
41881;SDS011;27562;47.524;12.404;2023-12-04T12:10:17;13.40;;;6.10;;
41881;SDS011;27562;47.524;12.404;2023-12-04T12:12:43;12.35;;;6.05;;
41881;SDS011;27562;47.524;12.404;2023-12-04T12:15:10;10.00;;;5.90;;
41881;SDS011;27562;47.524;12.404;2023-12-04T12:17:39;14.27;;;6.35;;
41881;SDS011;27562;47.524;12.404;2023-12-04T12:20:07;13.57;;;7.05;;
41881;SDS011;27562;47.524;12.404;2023-12-04T12:22:34;18.67;;;8.77;;
41881;SDS011;27562;47.524;12.404;2023-12-04T12:25:01;11.20;;;6.03;;
41881;SDS011;27562;47.524;12.404;2023-12-04T12:27:30;12.25;;;5.82;;
41881;SDS011;27562;47.524;12.404;2023-12-04T12:29:56;13.23;;;5.82;;
41881;SDS011;27562;47.524;12.404;2023-12-04T12:32:21;11.10;;;4.72;;
41881;SDS011;27562;47.524;12.404;2023-12-04T12:34:47;8.68;;;4.45;;
41881;SDS011;27562;47.524;12.404;2023-12-04T12:37:12;8.18;;;3.97;;
41881;SDS011;27562;47.524;12.404;2023-12-04T12:39:38;8.52;;;4.50;;
41881;SDS011;27562;47.524;12.404;2023-12-04T12:42:05;9.00;;;4.57;;
41881;SDS011;27562;47.524;12.404;2023-12-04T12:44:38;8.85;;;4.43;;
41881;SDS011;27562;47.524;12.404;2023-12-04T12:47:05;10.90;;;5.35;;
41881;SDS011;27562;47.524;12.404;2023-12-04T12:49:32;8.43;;;4.28;;
41881;SDS011;27562;47.524;12.404;2023-12-04T12:51:59;9.68;;;5.20;;
41881;SDS011;27562;47.524;12.404;2023-12-04T12:54:25;10.45;;;5.03;;
41881;SDS011;27562;47.524;12.404;2023-12-04T12:56:51;7.97;;;4.47;;
41881;SDS011;27562;47.524;12.404;2023-12-04T12:59:16;10.80;;;5.00;;
41881;SDS011;27562;47.524;12.404;2023-12-04T13:01:45;11.30;;;5.40;;
41881;SDS011;27562;47.524;12.404;2023-12-04T13:04:13;10.68;;;4.68;;
41881;SDS011;27562;47.524;12.404;2023-12-04T13:06:40;8.60;;;4.80;;
41881;SDS011;27562;47.524;12.404;2023-12-04T13:09:06;13.15;;;6.70;;
41881;SDS011;27562;47.524;12.404;2023-12-04T13:11:32;13.82;;;6.68;;
41881;SDS011;27562;47.524;12.404;2023-12-04T13:13:58;12.60;;;5.85;;
41881;SDS011;27562;47.524;12.404;2023-12-04T13:16:24;12.85;;;5.32;;
41881;SDS011;27562;47.524;12.404;2023-12-04T13:18:50;11.85;;;5.72;;
41881;SDS011;27562;47.524;12.404;2023-12-04T13:21:16;11.30;;;5.60;;
41881;SDS011;27562;47.524;12.404;2023-12-04T13:23:41;10.57;;;5.25;;
41881;SDS011;27562;47.524;12.404;2023-12-04T13:26:07;10.98;;;5.57;;
41881;SDS011;27562;47.524;12.404;2023-12-04T13:28:35;9.98;;;4.55;;
41881;SDS011;27562;47.524;12.404;2023-12-04T13:31:04;9.90;;;4.80;;
41881;SDS011;27562;47.524;12.404;2023-12-04T13:33:30;10.60;;;5.00;;
41881;SDS011;27562;47.524;12.404;2023-12-04T13:35:57;8.65;;;4.43;;
41881;SDS011;27562;47.524;12.404;2023-12-04T13:38:22;13.63;;;5.22;;
41881;SDS011;27562;47.524;12.404;2023-12-04T13:40:48;7.95;;;4.50;;
41881;SDS011;27562;47.524;12.404;2023-12-04T13:43:27;9.63;;;4.55;;
41881;SDS011;27562;47.524;12.404;2023-12-04T13:46:12;17.33;;;8.48;;
41881;SDS011;27562;47.524;12.404;2023-12-04T13:48:38;15.85;;;7.57;;
41881;SDS011;27562;47.524;12.404;2023-12-04T13:51:08;21.05;;;9.48;;
41881;SDS011;27562;47.524;12.404;2023-12-04T13:53:34;21.05;;;10.38;;
41881;SDS011;27562;47.524;12.404;2023-12-04T13:56:04;15.82;;;8.70;;
41881;SDS011;27562;47.524;12.404;2023-12-04T13:58:55;16.05;;;8.43;;
41881;SDS011;27562;47.524;12.404;2023-12-04T14:01:25;15.02;;;6.88;;
41881;SDS011;27562;47.524;12.404;2023-12-04T14:03:55;14.32;;;6.90;;
41881;SDS011;27562;47.524;12.404;2023-12-04T14:06:26;13.38;;;6.30;;
41881;SDS011;27562;47.524;12.404;2023-12-04T14:08:55;12.73;;;6.30;;
41881;SDS011;27562;47.524;12.404;2023-12-04T14:11:22;11.18;;;5.70;;
41881;SDS011;27562;47.524;12.404;2023-12-04T14:13:48;13.30;;;5.90;;
41881;SDS011;27562;47.524;12.404;2023-12-04T14:16:14;11.10;;;6.45;;
41881;SDS011;27562;47.524;12.404;2023-12-04T14:18:41;8.57;;;4.43;;
41881;SDS011;27562;47.524;12.404;2023-12-04T14:21:07;11.18;;;4.95;;
41881;SDS011;27562;47.524;12.404;2023-12-04T14:23:33;10.43;;;4.82;;
41881;SDS011;27562;47.524;12.404;2023-12-04T14:25:59;8.00;;;4.65;;
41881;SDS011;27562;47.524;12.404;2023-12-04T14:28:26;8.88;;;4.78;;